Time;durP1;ratioP1;P1;durP2;ratioP2;P2;SDS_P1;SDS_P2;PMS_P1;PMS_P2;Temp;Humidity;BMP_temperature;BMP_pressure;BME280_temperature;BME280_humidity;BME280_pressure;Samples;Min_cycle;Max_cycle;Signal;HPM_P1;HPM_P2
2022/08/06 00:00:06;;;;;;;1.50;0.93;;;17.20;45.00;;;;;;5033589;28;20244;-74
2022/08/06 00:02:35;;;;;;;2.73;0.90;;;17.30;45.20;;;;;;5024049;28;20257;-78
2022/08/06 00:05:04;;;;;;;2.07;1.00;;;17.30;45.50;;;;;;5046406;28;20242;-80
2022/08/06 00:07:32;;;;;;;1.57;0.90;;;17.30;45.60;;;;;;5035114;28;20194;-81
2022/08/06 00:09:59;;;;;;;1.00;0.90;;;17.40;42.80;;;;;;5027478;28;20180;-77
2022/08/06 00:12:28;;;;;;;1.73;0.70;;;17.50;42.50;;;;;;5030004;28;20294;-79
2022/08/06 00:14:55;;;;;;;2.77;0.87;;;17.60;43.40;;;;;;5029814;28;20672;-79
2022/08/06 00:17:23;;;;;;;1.17;0.70;;;17.60;44.30;;;;;;5024209;28;20200;-83
2022/08/06 00:19:50;;;;;;;1.57;0.80;;;17.70;42.70;;;;;;5042310;28;20277;-75
2022/08/06 00:22:17;;;;;;;2.40;1.00;;;17.80;43.10;;;;;;5015054;28;20180;-83
2022/08/06 00:24:45;;;;;;;2.03;1.23;;;17.80;41.60;;;;;;5038870;28;20239;-77
2022/08/06 00:27:12;;;;;;;2.23;0.80;;;17.90;41.00;;;;;;5040486;28;20588;-78
2022/08/06 00:29:39;;;;;;;2.70;1.00;;;17.90;40.10;;;;;;5028962;28;20206;-81
2022/08/06 00:32:07;;;;;;;1.57;0.90;;;17.80;40.30;;;;;;5036945;28;20248;-77
2022/08/06 00:34:34;;;;;;;2.67;1.00;;;17.80;39.80;;;;;;5032348;28;20268;-78
2022/08/06 00:37:02;;;;;;;1.00;0.60;;;17.80;40.20;;;;;;5039203;28;20179;-73
2022/08/06 00:39:38;;;;;;;3.57;0.80;;;18.00;39.70;;;;;;5023980;28;20234;-79
2022/08/06 00:42:08;;;;;;;1.37;0.73;;;18.10;39.40;;;;;;5032774;28;20678;-84
2022/08/06 00:44:36;;;;;;;1.90;0.90;;;18.10;39.00;;;;;;5030177;28;20204;-81
2022/08/06 00:47:04;;;;;;;3.00;0.73;;;18.00;39.40;;;;;;5044165;28;20539;-88
2022/08/06 00:49:32;;;;;;;1.33;0.70;;;18.20;40.20;;;;;;5022099;28;20187;-81
2022/08/06 00:52:00;;;;;;;1.03;0.60;;;18.30;37.80;;;;;;5023457;28;20743;-80
2022/08/06 00:54:27;;;;;;;1.73;0.73;;;18.20;37.80;;;;;;5030980;28;20222;-84
2022/08/06 00:56:55;;;;;;;1.47;1.10;;;18.10;37.60;;;;;;5053380;28;20175;-79
2022/08/06 00:59:22;;;;;;;1.63;0.70;;;18.20;38.30;;;;;;5034808;28;20467;-80
2022/08/06 01:01:49;;;;;;;3.17;1.03;;;18.50;38.50;;;;;;5019301;28;20198;-78
2022/08/06 01:04:17;;;;;;;1.53;0.77;;;18.60;37.70;;;;;;5035558;28;20286;-80
2022/08/06 01:06:44;;;;;;;0.87;0.60;;;18.70;36.20;;;;;;5028288;28;20190;-76
2022/08/06 01:09:12;;;;;;;2.60;0.80;;;18.50;35.80;;;;;;5030345;28;20211;-77
2022/08/06 01:11:40;;;;;;;1.83;0.57;;;18.50;35.80;;;;;;5049995;28;20180;-79
2022/08/06 01:14:09;;;;;;;2.40;0.70;;;18.80;35.70;;;;;;5047343;28;20183;-78
2022/08/06 01:16:55;;;;;;;1.60;0.60;;;18.90;35.20;;;;;;5035518;28;20187;-80
2022/08/06 01:19:51;;;;;;;1.27;0.60;;;18.80;34.70;;;;;;5019371;28;20266;-79
2022/08/06 01:22:59;;;;;;;0.70;0.57;;;18.80;34.50;;;;;;5018390;28;20196;-78
2022/08/06 01:25:45;;;;;;;4.53;0.80;;;18.90;34.80;;;;;;5021474;28;20246;-78
2022/08/06 01:28:34;;;;;;;2.87;0.70;;;19.10;33.60;;;;;;5031890;28;20611;-79
2022/08/06 01:31:11;;;;;;;0.80;0.60;;;19.00;32.60;;;;;;5044562;28;20202;-76
2022/08/06 01:33:46;;;;;;;3.63;0.90;;;19.40;31.90;;;;;;5053405;28;20301;-82
2022/08/06 01:36:29;;;;;;;2.63;0.67;;;19.60;33.10;;;;;;5049114;28;20202;-83
2022/08/06 01:38:59;;;;;;;2.30;0.87;;;19.80;32.80;;;;;;5036996;28;20228;-82
2022/08/06 01:41:38;;;;;;;1.13;0.70;;;19.20;33.40;;;;;;5035553;28;20200;-78
2022/08/06 01:44:13;;;;;;;1.67;0.60;;;19.00;33.90;;;;;;5047370;28;20180;-79
2022/08/06 01:46:48;;;;;;;1.53;0.70;;;19.50;33.50;;;;;;5052783;28;20214;-82
2022/08/06 01:49:19;;;;;;;3.70;0.60;;;19.90;32.40;;;;;;5050427;28;20171;-78
2022/08/06 01:51:49;;;;;;;1.00;0.60;;;19.70;32.10;;;;;;5052637;28;20173;-82
2022/08/06 01:54:18;;;;;;;1.17;0.60;;;19.40;33.20;;;;;;5052508;28;20416;-77
2022/08/06 01:56:49;;;;;;;0.87;0.60;;;19.50;33.20;;;;;;5035578;28;20173;-88
2022/08/06 01:59:20;;;;;;;0.60;0.60;;;19.80;33.20;;;;;;5020472;28;20183;-77
2022/08/06 02:01:51;;;;;;;1.00;0.53;;;20.40;31.40;;;;;;5012791;28;20169;-80
2022/08/06 02:04:21;;;;;;;1.00;0.63;;;20.30;31.70;;;;;;5020787;28;20212;-80
2022/08/06 02:06:50;;;;;;;1.67;0.60;;;20.10;32.40;;;;;;5033042;28;20172;-76
2022/08/06 02:09:23;;;;;;;3.53;0.80;;;19.80;33.00;;;;;;5031197;28;20223;-81
2022/08/06 02:12:00;;;;;;;0.73;0.60;;;19.60;33.80;;;;;;5021794;28;20208;-78
2022/08/06 02:14:31;;;;;;;0.63;0.60;;;19.50;33.90;;;;;;5020049;28;20181;-85
2022/08/06 02:17:02;;;;;;;3.30;0.80;;;19.50;34.20;;;;;;5042339;28;20565;-81
2022/08/06 02:19:31;;;;;;;1.50;0.70;;;19.30;34.90;;;;;;5027008;28;20187;-82
2022/08/06 02:22:03;;;;;;;2.03;0.80;;;19.80;34.30;;;;;;5036838;28;20173;-79
2022/08/06 02:24:32;;;;;;;1.90;0.60;;;19.80;33.30;;;;;;5031986;28;20188;-77
2022/08/06 02:27:02;;;;;;;1.33;0.60;;;20.00;33.30;;;;;;5037461;28;20184;-79
2022/08/06 02:29:32;;;;;;;1.93;0.70;;;20.40;32.20;;;;;;5039044;28;20283;-78
2022/08/06 02:31:59;;;;;;;0.90;0.60;;;20.90;32.40;;;;;;5020882;28;20173;-83
2022/08/06 02:34:26;;;;;;;2.10;0.60;;;20.80;32.20;;;;;;5036554;28;20307;-80
2022/08/06 02:37:17;;;;;;;2.00;0.63;;;19.80;33.20;;;;;;5033699;28;20176;-82
2022/08/06 02:39:54;;;;;;;2.60;0.60;;;19.60;33.90;;;;;;5034296;28;20701;-80
2022/08/06 02:42:33;;;;;;;0.60;0.50;;;19.70;34.40;;;;;;5040034;28;20184;-85
2022/08/06 02:45:19;;;;;;;1.00;0.70;;;20.20;33.30;;;;;;5037610;28;20247;-83
2022/08/06 02:47:54;;;;;;;2.93;0.80;;;19.80;33.40;;;;;;5026722;28;20212;-83
2022/08/06 02:50:28;;;;;;;0.97;0.67;;;19.30;34.40;;;;;;5035240;28;20181;-79
2022/08/06 02:53:10;;;;;;;0.80;0.50;;;18.80;34.70;;;;;;5045789;28;20255;-81
2022/08/06 02:55:42;;;;;;;0.97;0.50;;;18.80;35.10;;;;;;5052235;28;20177;-82
2022/08/06 02:58:29;;;;;;;1.07;0.70;;;18.80;35.70;;;;;;5036173;28;20570;-81
2022/08/06 03:01:00;;;;;;;1.73;0.80;;;19.10;34.80;;;;;;5054744;28;20598;-79
2022/08/06 03:03:29;;;;;;;0.93;0.60;;;20.00;33.90;;;;;;5038438;28;20556;-80
2022/08/06 03:05:59;;;;;;;3.00;0.63;;;20.70;32.90;;;;;;5028090;28;20261;-78
2022/08/06 03:08:29;;;;;;;1.33;0.70;;;21.10;30.30;;;;;;5055586;28;20259;-79
2022/08/06 03:10:58;;;;;;;1.77;0.60;;;20.90;30.60;;;;;;5053975;28;20183;-77
2022/08/06 03:13:26;;;;;;;1.50;0.63;;;20.20;31.10;;;;;;5055547;28;20225;-76
2022/08/06 03:15:55;;;;;;;2.30;0.80;;;19.50;32.60;;;;;;5055294;28;20658;-81
2022/08/06 03:18:23;;;;;;;2.43;0.47;;;19.80;32.90;;;;;;5036434;28;20279;-79
2022/08/06 03:20:51;;;;;;;1.33;0.50;;;20.30;32.60;;;;;;5035100;28;20179;-79
2022/08/06 03:23:20;;;;;;;1.83;0.60;;;20.80;31.90;;;;;;5032665;28;20178;-82
2022/08/06 03:25:50;;;;;;;2.80;0.70;;;20.70;32.50;;;;;;5054978;28;20215;-82
2022/08/06 03:28:18;;;;;;;0.97;0.50;;;20.60;32.70;;;;;;5055330;28;20172;-77
2022/08/06 03:30:46;;;;;;;2.23;0.67;;;19.60;34.00;;;;;;5054876;28;20241;-79
2022/08/06 03:33:18;;;;;;;1.27;0.57;;;19.30;34.40;;;;;;5054913;28;20240;-84
2022/08/06 03:35:46;;;;;;;0.80;0.53;;;19.00;34.80;;;;;;5054879;28;20164;-76
2022/08/06 03:38:16;;;;;;;0.70;0.50;;;19.00;34.50;;;;;;5044015;28;20179;-83
2022/08/06 03:40:45;;;;;;;1.57;0.77;;;18.80;35.20;;;;;;5033526;28;20697;-80
2022/08/06 03:43:12;;;;;;;0.80;0.70;;;18.70;35.60;;;;;;5049036;28;20180;-76
2022/08/06 03:45:48;;;;;;;1.97;0.70;;;18.90;35.10;;;;;;5015196;28;20574;-79
2022/08/06 03:48:19;;;;;;;1.63;0.73;;;19.80;34.10;;;;;;5013721;28;20573;-77
2022/08/06 03:50:49;;;;;;;2.63;0.60;;;20.30;33.20;;;;;;5015120;28;20681;-81
2022/08/06 03:53:27;;;;;;;1.67;0.60;;;20.60;31.90;;;;;;5046558;28;20168;-78
2022/08/06 03:55:59;;;;;;;1.33;0.60;;;21.10;31.70;;;;;;5031624;28;20181;-76
2022/08/06 03:58:28;;;;;;;1.03;0.60;;;21.10;29.80;;;;;;5042594;28;20176;-79
2022/08/06 04:01:11;;;;;;;0.60;0.60;;;21.20;29.30;;;;;;5043113;28;20226;-79
2022/08/06 04:03:40;;;;;;;0.40;0.40;;;20.40;30.10;;;;;;5054567;28;20172;-77
2022/08/06 04:06:09;;;;;;;1.47;0.83;;;19.70;31.60;;;;;;5054187;28;20203;-79
2022/08/06 04:08:38;;;;;;;1.10;0.60;;;19.40;32.90;;;;;;5054222;28;20773;-80
2022/08/06 04:11:07;;;;;;;0.53;0.40;;;19.30;32.90;;;;;;5051014;28;20241;-77
2022/08/06 04:13:36;;;;;;;1.17;0.67;;;19.80;31.50;;;;;;5047885;28;20195;-75
2022/08/06 04:16:04;;;;;;;1.13;0.67;;;19.40;32.30;;;;;;5054125;28;20172;-79
2022/08/06 04:18:38;;;;;;;0.50;0.50;;;19.20;33.00;;;;;;5054265;28;20178;-79
2022/08/06 04:21:14;;;;;;;1.33;0.63;;;20.10;32.30;;;;;;5054406;28;20637;-78
2022/08/06 04:23:42;;;;;;;1.67;0.77;;;20.60;30.80;;;;;;5053880;28;20530;-79
2022/08/06 04:26:12;;;;;;;2.00;0.80;;;20.60;31.20;;;;;;5038877;28;20269;-77
2022/08/06 04:28:42;;;;;;;1.90;0.57;;;20.80;30.90;;;;;;5033332;28;20168;-79
2022/08/06 04:31:11;;;;;;;0.87;0.57;;;20.30;31.70;;;;;;5034240;28;20515;-80
2022/08/06 04:33:40;;;;;;;1.37;0.60;;;19.70;33.00;;;;;;5038640;28;20184;-77
2022/08/06 04:36:08;;;;;;;0.63;0.50;;;20.60;31.70;;;;;;5044434;28;20588;-78
2022/08/06 04:38:36;;;;;;;0.87;0.40;;;21.20;31.00;;;;;;5053562;28;20220;-84
2022/08/06 04:41:04;;;;;;;1.60;0.60;;;21.50;29.80;;;;;;5038561;28;20189;-75
2022/08/06 04:43:32;;;;;;;1.03;0.50;;;22.00;29.60;;;;;;5031868;28;20272;-82
2022/08/06 04:46:00;;;;;;;1.03;0.60;;;21.90;29.30;;;;;;5042052;28;20212;-81
2022/08/06 04:48:28;;;;;;;2.20;0.43;;;22.20;29.50;;;;;;5016625;28;20331;-79
2022/08/06 04:51:01;;;;;;;2.13;0.50;;;22.00;28.80;;;;;;5034067;28;20216;-77
2022/08/06 04:53:35;;;;;;;0.60;0.40;;;22.30;28.90;;;;;;5044915;28;20218;-82
2022/08/06 04:56:02;;;;;;;1.87;0.53;;;22.40;28.50;;;;;;5052877;28;20168;-81
2022/08/06 04:58:29;;;;;;;0.47;0.47;;;22.90;28.20;;;;;;5053166;28;20172;-77
2022/08/06 05:00:57;;;;;;;1.43;0.53;;;22.80;27.90;;;;;;5053204;28;20208;-81
2022/08/06 05:03:24;;;;;;;0.70;0.60;;;22.30;28.70;;;;;;5045936;28;20176;-77
2022/08/06 05:06:24;;;;;;;1.73;0.70;;;22.30;29.00;;;;;;5052905;28;20218;-79
2022/08/06 05:08:59;;;;;;;1.23;0.60;;;22.30;29.50;;;;;;5047523;28;20192;-78
2022/08/06 05:11:34;;;;;;;2.22;0.60;;;22.40;29.10;;;;;;5031697;28;20412;-75
2022/08/06 05:14:06;;;;;;;2.83;0.50;;;21.60;29.00;;;;;;5019442;28;20179;-81
2022/08/06 05:16:38;;;;;;;1.37;0.60;;;21.30;29.70;;;;;;5040492;28;20688;-78
2022/08/06 05:19:11;;;;;;;1.70;0.70;;;21.40;30.10;;;;;;5025038;28;20185;-79
2022/08/06 05:21:40;;;;;;;0.87;0.57;;;21.90;29.80;;;;;;5024916;28;20169;-78
2022/08/06 05:24:08;;;;;;;1.17;0.50;;;22.80;28.90;;;;;;5032000;28;20198;-76
2022/08/06 05:26:36;;;;;;;1.30;0.57;;;22.40;28.40;;;;;;5049322;28;20291;-76
2022/08/06 05:29:03;;;;;;;0.77;0.50;;;22.60;28.70;;;;;;5045781;28;20639;-78
2022/08/06 05:31:39;;;;;;;1.27;0.70;;;22.20;29.20;;;;;;5043911;28;20180;-75
2022/08/06 05:34:10;;;;;;;0.73;0.40;;;22.10;29.40;;;;;;5037947;28;20176;-82
2022/08/06 05:36:38;;;;;;;0.70;0.43;;;22.40;28.50;;;;;;5051546;28;20255;-74
2022/08/06 05:39:07;;;;;;;0.50;0.50;;;22.00;28.70;;;;;;5044141;28;20222;-77
2022/08/06 05:41:34;;;;;;;1.07;0.63;;;22.30;28.80;;;;;;5042704;28;20222;-85
2022/08/06 05:44:03;;;;;;;1.13;0.50;;;22.60;28.40;;;;;;5040050;28;20631;-73
2022/08/06 05:46:42;;;;;;;0.50;0.50;;;22.10;28.30;;;;;;5051233;28;20204;-72
2022/08/06 05:49:17;;;;;;;1.33;0.53;;;22.00;28.40;;;;;;5026297;28;20185;-80
2022/08/06 05:51:53;;;;;;;0.90;0.50;;;21.90;28.50;;;;;;5052134;28;20175;-75
2022/08/06 05:54:33;;;;;;;0.80;0.50;;;21.30;29.00;;;;;;5045632;28;20176;-79
2022/08/06 05:57:28;;;;;;;1.70;0.60;;;21.80;28.10;;;;;;5040702;28;20180;-74
2022/08/06 06:00:08;;;;;;;2.77;0.60;;;21.40;28.10;;;;;;5026342;28;20247;-79
2022/08/06 06:02:43;;;;;;;0.90;0.53;;;21.30;28.80;;;;;;5037422;28;20234;-74
2022/08/06 06:05:12;;;;;;;1.50;0.50;;;21.30;28.70;;;;;;5056231;28;20191;-76
2022/08/06 06:07:40;;;;;;;0.50;0.40;;;21.30;29.10;;;;;;5037577;28;20174;-76
2022/08/06 06:10:09;;;;;;;0.57;0.57;;;20.70;29.90;;;;;;5046892;28;20177;-75
2022/08/06 06:12:38;;;;;;;1.00;0.67;;;21.00;29.80;;;;;;5047024;28;20566;-79
2022/08/06 06:15:07;;;;;;;0.50;0.40;;;21.10;29.70;;;;;;5053099;28;20168;-76
2022/08/06 06:17:49;;;;;;;1.00;0.60;;;20.10;31.20;;;;;;5038950;28;20193;-76
2022/08/06 06:20:37;;;;;;;1.13;0.60;;;19.50;32.30;;;;;;5047238;28;20583;-76
2022/08/06 06:23:28;;;;;;;0.80;0.57;;;19.30;32.90;;;;;;5056277;28;20268;-75
2022/08/06 06:26:14;;;;;;;1.40;1.10;;;19.20;33.30;;;;;;5037336;28;20227;-76
2022/08/06 06:29:19;;;;;;;2.80;1.00;;;19.00;33.40;;;;;;5032575;28;20189;-75
2022/08/06 06:32:06;;;;;;;1.80;0.80;;;18.80;33.30;;;;;;5023847;28;20204;-76
2022/08/06 06:34:52;;;;;;;1.70;0.73;;;18.50;32.90;;;;;;5031942;28;20183;-76
2022/08/06 06:37:48;;;;;;;1.50;0.60;;;18.40;33.20;;;;;;5037651;28;20332;-77
2022/08/06 06:40:37;;;;;;;1.73;0.70;;;18.30;33.80;;;;;;5041354;28;20303;-77
2022/08/06 06:43:33;;;;;;;1.43;0.70;;;18.20;34.30;;;;;;5027607;28;20173;-87
2022/08/06 06:46:28;;;;;;;0.77;0.70;;;18.20;34.50;;;;;;5035013;28;20643;-80
2022/08/06 06:49:00;;;;;;;1.20;0.63;;;18.10;34.80;;;;;;5053182;28;20606;-78
2022/08/06 06:51:44;;;;;;;2.03;0.80;;;18.00;35.30;;;;;;5039741;28;20223;-77
2022/08/06 06:54:22;;;;;;;4.20;0.90;;;17.90;35.60;;;;;;5029571;28;20643;-73
2022/08/06 06:56:53;;;;;;;2.50;0.60;;;17.80;36.10;;;;;;5044698;28;20286;-79
2022/08/06 06:59:33;;;;;;;1.53;0.97;;;17.80;35.90;;;;;;5032019;28;20191;-75
2022/08/06 07:02:03;;;;;;;3.03;1.20;;;17.80;35.80;;;;;;5042029;28;20188;-77
2022/08/06 07:04:32;;;;;;;0.90;0.70;;;17.80;35.90;;;;;;5037022;28;20183;-73
2022/08/06 07:07:01;;;;;;;2.33;0.90;;;17.60;36.00;;;;;;5035936;28;20188;-79
2022/08/06 07:09:34;;;;;;;0.90;0.70;;;17.70;36.30;;;;;;5045194;28;20181;-77
2022/08/06 07:12:09;;;;;;;5.47;1.20;;;17.60;36.80;;;;;;5041380;28;20185;-77
2022/08/06 07:14:38;;;;;;;0.90;0.70;;;17.60;36.70;;;;;;5031627;28;20543;-82
2022/08/06 07:17:08;;;;;;;2.80;1.07;;;17.50;36.70;;;;;;5035753;28;20195;-83
2022/08/06 07:19:37;;;;;;;1.83;1.00;;;17.40;37.30;;;;;;5027911;28;20187;-81
2022/08/06 07:22:05;;;;;;;2.13;1.20;;;17.30;37.50;;;;;;5050257;28;20195;-84
2022/08/06 07:24:34;;;;;;;1.20;0.90;;;17.20;37.90;;;;;;5028846;28;20521;-78
2022/08/06 07:27:03;;;;;;;1.83;1.10;;;17.10;38.30;;;;;;5022251;28;20188;-79
2022/08/06 07:29:31;;;;;;;1.13;1.03;;;17.00;38.50;;;;;;5036405;28;20199;-79
2022/08/06 07:32:00;;;;;;;3.23;1.10;;;16.90;38.90;;;;;;5041424;28;20192;-75
2022/08/06 07:34:29;;;;;;;2.03;1.20;;;16.90;38.80;;;;;;5045772;28;20568;-79
2022/08/06 07:36:59;;;;;;;1.20;1.00;;;16.80;38.80;;;;;;5037742;28;20228;-84
2022/08/06 07:39:33;;;;;;;2.60;1.40;;;16.80;39.00;;;;;;5032001;28;20598;-79
2022/08/06 07:42:06;;;;;;;2.23;1.17;;;16.80;39.00;;;;;;5036004;28;20520;-78
2022/08/06 07:44:37;;;;;;;1.70;1.10;;;16.80;39.10;;;;;;5032277;28;20176;-75
2022/08/06 07:47:06;;;;;;;1.50;1.03;;;16.70;39.40;;;;;;5048038;28;20177;-78
2022/08/06 07:49:41;;;;;;;1.40;1.10;;;16.70;39.30;;;;;;5040442;28;20184;-79
2022/08/06 07:52:12;;;;;;;3.90;1.30;;;16.70;39.30;;;;;;5054282;28;20193;-78
2022/08/06 07:54:43;;;;;;;2.83;1.37;;;16.70;39.60;;;;;;5040455;28;20188;-75
2022/08/06 07:57:11;;;;;;;2.40;1.00;;;16.70;39.70;;;;;;5047151;28;20218;-80
2022/08/06 07:59:40;;;;;;;1.50;1.10;;;16.70;39.50;;;;;;5028281;28;20195;-77
2022/08/06 08:02:10;;;;;;;1.47;0.80;;;16.70;39.70;;;;;;5038115;28;20176;-79
2022/08/06 08:07:24;;;;;;;1.60;1.27;;;16.60;40.30;;;;;;5046612;28;20195;-83
2022/08/06 08:09:52;;;;;;;1.07;0.90;;;16.60;40.40;;;;;;5035679;28;20177;-79
2022/08/06 08:12:21;;;;;;;1.83;1.13;;;16.60;40.50;;;;;;5043235;28;20887;-79
2022/08/06 08:14:50;;;;;;;2.03;1.10;;;16.60;40.70;;;;;;5038076;28;20170;-77
2022/08/06 08:17:17;;;;;;;3.00;0.90;;;16.50;40.70;;;;;;5037604;28;20183;-76
2022/08/06 08:19:45;;;;;;;1.77;0.90;;;16.50;40.60;;;;;;5025469;28;20184;-79
2022/08/06 08:22:15;;;;;;;2.00;1.00;;;16.50;40.60;;;;;;5042631;28;20182;-77
2022/08/06 08:24:45;;;;;;;1.43;0.90;;;16.50;40.90;;;;;;5046931;28;20662;-81
2022/08/06 08:27:12;;;;;;;3.23;1.00;;;16.40;41.20;;;;;;5053784;28;20181;-85
2022/08/06 08:29:41;;;;;;;2.23;1.10;;;16.40;41.40;;;;;;5052414;28;20176;-86
2022/08/06 08:32:10;;;;;;;1.53;0.90;;;16.30;41.50;;;;;;5053746;28;20175;-76
2022/08/06 08:34:38;;;;;;;2.17;1.10;;;16.30;41.50;;;;;;5043039;28;20184;-80
2022/08/06 08:37:05;;;;;;;2.43;1.03;;;16.30;41.60;;;;;;5047572;28;20259;-80
2022/08/06 08:39:33;;;;;;;1.73;1.00;;;16.30;41.60;;;;;;5034798;28;20255;-78
2022/08/06 08:42:08;;;;;;;1.00;0.80;;;16.30;41.60;;;;;;5047027;28;20214;-80
2022/08/06 08:44:36;;;;;;;1.07;0.90;;;16.30;41.60;;;;;;5032063;28;20638;-79
2022/08/06 08:47:05;;;;;;;2.23;0.90;;;16.20;41.70;;;;;;5029150;28;20177;-79
2022/08/06 08:49:38;;;;;;;1.40;1.27;;;16.20;41.70;;;;;;5053175;28;20178;-79
2022/08/06 08:52:08;;;;;;;1.63;1.00;;;16.20;42.00;;;;;;5046584;28;20427;-80
2022/08/06 08:54:38;;;;;;;1.53;1.10;;;16.10;42.10;;;;;;5053632;28;20175;-83
2022/08/06 08:57:05;;;;;;;2.30;1.60;;;16.00;42.40;;;;;;5052319;28;20185;-81
2022/08/06 08:59:35;;;;;;;4.27;1.93;;;15.90;42.80;;;;;;5053496;28;20179;-84
2022/08/06 09:02:02;;;;;;;2.73;1.67;;;15.80;43.10;;;;;;5051714;28;20229;-78
2022/08/06 09:04:33;;;;;;;3.50;2.10;;;15.80;43.50;;;;;;5049882;28;20278;-80
2022/08/06 09:07:01;;;;;;;4.00;2.37;;;15.70;43.90;;;;;;5053159;28;20244;-78
2022/08/06 09:09:30;;;;;;;3.20;2.10;;;15.70;44.20;;;;;;5039159;28;20176;-82
2022/08/06 09:11:59;;;;;;;4.87;2.30;;;15.70;44.40;;;;;;5025110;28;20796;-81
2022/08/06 09:14:26;;;;;;;3.27;2.30;;;15.60;44.70;;;;;;5037005;28;20658;-82
2022/08/06 09:16:54;;;;;;;3.67;2.40;;;15.50;45.10;;;;;;5027366;28;20187;-81
2022/08/06 09:19:22;;;;;;;6.27;3.63;;;15.40;45.50;;;;;;5042026;28;20178;-81
2022/08/06 09:21:49;;;;;;;3.50;2.10;;;15.30;46.10;;;;;;5052577;28;20242;-80
2022/08/06 09:24:16;;;;;;;4.73;2.50;;;15.20;46.00;;;;;;5046444;28;20257;-79
2022/08/06 09:27:13;;;;;;;6.23;2.60;;;15.10;46.70;;;;;;5016829;28;20678;-80
2022/08/06 09:29:55;;;;;;;2.60;2.17;;;15.00;47.20;;;;;;5032783;28;20168;-80
2022/08/06 09:32:46;;;;;;;3.50;2.43;;;15.00;47.30;;;;;;5051082;28;20637;-77
2022/08/06 09:35:21;;;;;;;3.30;2.10;;;14.90;47.60;;;;;;5025599;28;20540;-79
2022/08/06 09:37:59;;;;;;;5.17;2.73;;;14.90;47.30;;;;;;5037659;28;20287;-79
2022/08/06 09:40:26;;;;;;;2.50;1.80;;;14.90;47.50;;;;;;5039840;28;20558;-80
2022/08/06 09:42:53;;;;;;;3.10;1.80;;;14.90;47.20;;;;;;5051099;28;20263;-79
2022/08/06 09:45:23;;;;;;;3.10;1.60;;;14.90;47.00;;;;;;5044200;28;20212;-78
2022/08/06 09:48:01;;;;;;;4.83;1.60;;;14.90;47.00;;;;;;5032538;28;20236;-78
2022/08/06 09:50:44;;;;;;;2.30;1.80;;;14.90;46.60;;;;;;5039161;28;20179;-79
2022/08/06 09:53:18;;;;;;;4.33;1.30;;;14.90;46.60;;;;;;5047252;28;20700;-76
2022/08/06 09:55:46;;;;;;;5.10;1.90;;;15.00;46.60;;;;;;5052656;28;20175;-81
2022/08/06 09:58:25;;;;;;;3.83;1.27;;;15.00;46.60;;;;;;5052152;28;20257;-76
2022/08/06 10:00:53;;;;;;;3.37;1.90;;;15.00;46.60;;;;;;5033828;28;20168;-81
2022/08/06 10:03:20;;;;;;;3.43;1.83;;;15.00;46.80;;;;;;5046825;28;20184;-78
2022/08/06 10:06:02;;;;;;;3.60;1.90;;;15.00;46.90;;;;;;5052188;28;20239;-80
2022/08/06 10:08:29;;;;;;;3.17;1.43;;;14.90;47.20;;;;;;5052672;28;20184;-78
2022/08/06 10:11:02;;;;;;;3.47;1.70;;;14.90;47.10;;;;;;5044603;28;20179;-84
2022/08/06 10:13:33;;;;;;;4.17;1.77;;;14.90;47.20;;;;;;5042131;28;20168;-80
2022/08/06 10:16:14;;;;;;;3.10;1.83;;;14.80;47.80;;;;;;5024513;28;20652;-80
2022/08/06 10:18:42;;;;;;;4.03;2.00;;;14.80;48.10;;;;;;5038158;28;20187;-76
2022/08/06 10:21:14;;;;;;;3.93;2.13;;;14.70;48.90;;;;;;5051182;28;20184;-83
2022/08/06 10:23:44;;;;;;;3.37;1.83;;;14.60;49.10;;;;;;5041145;28;20574;-83
2022/08/06 10:26:13;;;;;;;3.67;2.37;;;14.50;49.30;;;;;;5052140;28;20275;-84
2022/08/06 10:28:44;;;;;;;5.00;2.47;;;14.50;49.40;;;;;;5051637;28;20176;-78
2022/08/06 10:31:14;;;;;;;4.23;2.20;;;14.40;49.50;;;;;;5052753;28;20227;-80
2022/08/06 10:33:55;;;;;;;4.17;2.20;;;14.30;49.80;;;;;;5043789;28;20209;-81
2022/08/06 10:36:28;;;;;;;3.37;2.10;;;14.30;50.00;;;;;;5052269;28;20184;-80
2022/08/06 10:38:57;;;;;;;3.17;2.07;;;14.20;50.60;;;;;;5052329;28;20668;-80
2022/08/06 10:41:25;;;;;;;3.77;2.47;;;14.10;50.70;;;;;;5037699;28;20210;-81
2022/08/06 10:43:55;;;;;;;3.47;2.00;;;14.00;51.30;;;;;;5043821;28;20188;-80
2022/08/06 10:46:23;;;;;;;3.90;2.20;;;13.90;51.80;;;;;;5052482;28;20235;-80
2022/08/06 10:48:53;;;;;;;6.67;2.63;;;13.90;51.90;;;;;;5052585;28;20186;-79
2022/08/06 10:51:21;;;;;;;2.67;1.83;;;13.80;52.60;;;;;;5054983;28;20209;-79
2022/08/06 10:53:49;;;;;;;5.13;2.43;;;13.80;52.50;;;;;;5054107;28;20180;-79
2022/08/06 10:56:18;;;;;;;4.83;1.80;;;13.80;52.60;;;;;;5053143;28;20188;-81
2022/08/06 10:58:46;;;;;;;4.23;2.10;;;13.70;52.80;;;;;;5056143;28;20534;-79
2022/08/06 11:01:39;;;;;;;3.90;1.90;;;13.70;53.00;;;;;;5042116;28;20176;-81
2022/08/06 11:04:24;;;;;;;6.03;1.90;;;13.60;53.80;;;;;;5056468;28;20176;-79
2022/08/06 11:07:00;;;;;;;2.70;1.70;;;13.50;53.40;;;;;;5053762;28;20701;-79
2022/08/06 11:09:57;;;;;;;2.53;1.80;;;13.50;54.40;;;;;;5055170;28;20176;-80
2022/08/06 11:12:52;;;;;;;2.27;1.77;;;13.50;53.70;;;;;;5055314;28;20207;-80
2022/08/06 11:15:20;;;;;;;4.00;2.13;;;13.50;54.30;;;;;;5056144;28;20265;-81
2022/08/06 11:18:03;;;;;;;2.37;1.90;;;13.50;54.10;;;;;;5055449;28;20176;-80
2022/08/06 11:20:33;;;;;;;2.93;1.90;;;13.40;54.70;;;;;;5053328;28;20176;-80
2022/08/06 11:23:02;;;;;;;2.60;1.87;;;13.40;54.90;;;;;;5047414;28;20176;-80
2022/08/06 11:25:46;;;;;;;4.03;2.00;;;13.30;55.40;;;;;;5048884;28;20513;-81
2022/08/06 11:28:16;;;;;;;3.20;2.10;;;13.30;54.60;;;;;;5044005;28;20233;-79
2022/08/06 11:30:49;;;;;;;2.17;1.83;;;13.30;54.80;;;;;;5048328;28;20258;-81
2022/08/06 11:33:28;;;;;;;4.50;2.20;;;13.30;54.80;;;;;;5042364;28;20650;-78
2022/08/06 11:35:56;;;;;;;3.37;1.87;;;13.30;54.80;;;;;;5063506;28;20653;-79
2022/08/06 11:38:46;;;;;;;4.97;2.10;;;13.30;54.80;;;;;;5043215;28;20225;-80
2022/08/06 11:41:32;;;;;;;3.33;2.00;;;13.30;54.80;;;;;;5039352;28;20200;-80
2022/08/06 11:44:00;;;;;;;4.60;2.00;;;13.20;55.00;;;;;;5058580;28;20207;-81
2022/08/06 11:46:28;;;;;;;3.60;1.70;;;13.20;55.20;;;;;;5053545;28;20231;-80
2022/08/06 11:49:03;;;;;;;4.17;1.73;;;13.20;55.40;;;;;;5055130;28;20176;-81
2022/08/06 11:51:54;;;;;;;5.87;2.20;;;13.10;54.90;;;;;;5042267;28;20191;-80
2022/08/06 11:54:26;;;;;;;4.50;2.23;;;13.00;56.00;;;;;;5040723;28;20184;-79
2022/08/06 11:57:06;;;;;;;3.77;2.20;;;13.00;56.40;;;;;;5053554;28;20168;-79
2022/08/06 12:00:07;;;;;;;4.13;2.10;;;13.00;56.30;;;;;;5054525;28;20499;-79
2022/08/06 12:02:45;;;;;;;3.97;2.60;;;12.90;56.50;;;;;;5032245;28;20208;-79
2022/08/06 12:05:15;;;;;;;3.93;2.30;;;12.90;57.00;;;;;;5017028;28;20558;-78
2022/08/06 12:07:45;;;;;;;3.43;2.53;;;13.00;57.00;;;;;;5044926;28;20188;-79
2022/08/06 12:10:16;;;;;;;3.80;2.50;;;13.00;57.70;;;;;;5052566;28;20184;-79
2022/08/06 12:12:49;;;;;;;5.83;2.63;;;12.90;57.20;;;;;;5038211;28;20180;-81
2022/08/06 12:15:19;;;;;;;5.77;2.93;;;12.90;57.80;;;;;;5033490;28;20283;-80
2022/08/06 12:17:56;;;;;;;3.73;2.10;;;12.90;57.90;;;;;;5032578;28;20543;-79
2022/08/06 12:20:36;;;;;;;4.37;2.60;;;12.80;57.80;;;;;;5031817;28;20575;-80
2022/08/06 12:23:06;;;;;;;4.37;3.17;;;12.90;58.20;;;;;;5043181;28;20219;-80
2022/08/06 12:25:42;;;;;;;10.03;3.00;;;12.80;58.20;;;;;;5051918;28;20208;-80
2022/08/06 12:28:13;;;;;;;5.77;2.27;;;12.80;58.70;;;;;;5041182;28;20172;-79
2022/08/06 12:30:51;;;;;;;5.67;2.47;;;12.80;58.90;;;;;;5039319;28;20176;-79
2022/08/06 12:33:21;;;;;;;4.67;2.43;;;12.80;58.90;;;;;;5037373;28;20180;-79
2022/08/06 12:35:56;;;;;;;8.00;2.67;;;12.70;58.80;;;;;;5052657;28;20191;-79
2022/08/06 12:38:27;;;;;;;4.53;2.40;;;12.70;58.90;;;;;;5051336;28;20211;-81
2022/08/06 12:40:56;;;;;;;8.07;2.67;;;12.60;58.30;;;;;;5049593;28;20190;-80
2022/08/06 12:43:24;;;;;;;3.27;2.00;;;12.70;58.10;;;;;;5046079;28;20650;-79
2022/08/06 12:46:02;;;;;;;4.30;2.20;;;12.70;58.40;;;;;;5049505;28;20594;-79
2022/08/06 12:48:29;;;;;;;8.77;1.97;;;12.70;58.50;;;;;;5051226;28;20186;-79
2022/08/06 12:51:13;;;;;;;3.43;2.10;;;12.70;58.40;;;;;;5036623;28;20188;-79
2022/08/06 12:53:43;;;;;;;4.90;1.90;;;12.70;58.50;;;;;;5047073;28;20187;-79
2022/08/06 12:56:11;;;;;;;8.93;2.10;;;12.70;58.40;;;;;;5055350;28;20202;-80
2022/08/06 12:58:41;;;;;;;5.20;2.17;;;12.70;58.50;;;;;;5041519;28;20191;-79
2022/08/06 13:01:22;;;;;;;4.13;1.80;;;12.60;58.70;;;;;;5034639;28;20180;-79
2022/08/06 13:03:53;;;;;;;4.13;1.87;;;12.70;58.80;;;;;;5040290;28;20242;-79
2022/08/06 13:06:24;;;;;;;4.30;1.70;;;12.60;58.70;;;;;;5053254;28;20214;-79
2022/08/06 13:08:53;;;;;;;3.73;1.80;;;12.60;58.80;;;;;;5040770;28;20235;-83
2022/08/06 13:11:21;;;;;;;4.13;1.70;;;12.60;59.20;;;;;;5033940;28;20180;-81
2022/08/06 13:13:52;;;;;;;3.70;1.60;;;12.60;58.70;;;;;;5047439;28;20185;-79
2022/08/06 13:16:23;;;;;;;4.03;1.70;;;12.70;59.00;;;;;;5053615;28;20183;-80
2022/08/06 13:19:10;;;;;;;3.97;1.70;;;12.70;58.80;;;;;;5039333;28;20179;-79